Terminal Aerodrome Forecast
Issued by NWS

Home | Current Version | Previous Version | Graphics & Text | Print | Product List | Glossary On
Versions: 1 2 3 4 5 6 7 8 9 10 11 12 13 14 15 16 17 18 19 20 21
000
FTUS43 KTOP 191515 AAA
TAFMHK
TAF AMD
KMHK 191515Z 1915/2012 00000KT 4SM BR SKC
     FM191600 16007KT 6SM BR FEW006
     FM191630 16008KT 6SM BR BKN008
     FM191800 16010KT P6SM BKN015
     FM192000 17010KT P6SM BKN025
     FM200200 17010KT 4SM BR OVC011
     FM200600 18009KT 3SM BR OVC008=

USA.gov is the U.S. government's official web portal to all federal, state and local government web resources and services.